Goodridge, MN

1:28 PM CDT on September 16, 2014 (GMT -0500)
Thief River Falls Regional | Change Station
CLOSE
Current Station
Airport
Location: Thief River Falls,
Elevation: 1115 ft
Nearby Weather Stations

Elev 1115 ft 48.06 °N, 96.18 °W | Updated 13 minutes ago

Clear
Clear
64 °F
Feels Like 64 °F
N
6
Wind Variable Wind from SW

Today
High -- | Low -- °F
--% Chance of Precip.
Yesterday
High -- | Low -- °F
Precip. -- in
7:01 AM 7:33 PM
Last Quarter, 43% visible
Pressure 30.01 in
Visibility 10.0 miles
Clouds Clear
Dew Point 43 °F
Humidity 45%
Rainfall 0.00 in
Snow Depth Not available.
UV 6 out of 12
Pollen 3.70 out of 12
Air Quality Not available.
Flu Activity Not available.
METAR KTVF 161815Z AUTO 23005KT 10SM CLR 18/06 A3001 RMK AO1

More Conditions Fewer Conditions

Pressure 30.01 in
Visibility 10.0 miles
Clouds Clear
Dew Point 43 °F
Humidity 45%
Rainfall 0.00 in
Snow Depth Not available.
UV 6 out of 12
Pollen 3.70 out of 12
Air Quality Not available.
Flu Activity Not available.
METAR KTVF 161815Z AUTO 23005KT 10SM CLR 18/06 A3001 RMK AO1

More Conditions Fewer Conditions

10-Day Weather Forecast

Almanac

Astronomy

Sep. 16, 2014 Rise Set
Actual Time 7:01 AM CDT 7:33 PM CDT
Civil Twilight 6:30 AM CDT 8:04 PM CDT
Nautical Twilight 5:52 AM CDT 8:41 PM CDT
Astronomical Twilight 5:14 AM CDT 9:19 PM CDT
Moon No Moon Rise 3:17 PM CDT
Length of Visible Light 13h 34m
Length of Day
12h 31m
Tomorrow will be 3m 27s shorter.
Last Quarter, 43% of the Moon is Illuminated
Today
Last Quarter
Sep 24
New
Oct 1
First Quarter
Oct 8
Full
Oct 15
Last Quarter

Today's Extremes

State Highs State Lows

Community

WunderPhotos

Upload Photos

1,753,852 photos uploaded!

WunderBlogs® & News

Nearby

Snow Depth

Station Depth Elevation
No new snow has been reported.

Earthquake Activity

City Distance Mag. Time & Date
No recent earthquake activity has been reported nearby.
Minimum magnitude displayed is 2.5.

Coastal Water Temperatures

Place Temperature
No Stations Reporting

Nearby Weather Stations